createdAt,value
2023-05-01T00:00:25.301Z,18.07
2023-05-01T00:02:52.560Z,17.03
2023-05-01T00:05:19.264Z,15.20
2023-05-01T00:07:45.872Z,17.57
2023-05-01T00:10:12.470Z,13.27
2023-05-01T00:12:39.100Z,14.97
2023-05-01T00:15:06.928Z,15.97
2023-05-01T00:17:33.579Z,13.27
2023-05-01T00:20:00.593Z,14.83
2023-05-01T00:22:27.333Z,18.73
2023-05-01T00:24:53.981Z,14.77
2023-05-01T00:27:21.667Z,14.63
2023-05-01T00:29:48.336Z,12.70
2023-05-01T00:32:15.372Z,15.87
2023-05-01T00:34:42.072Z,13.40
2023-05-01T00:37:08.733Z,15.57
2023-05-01T00:39:35.918Z,13.13
2023-05-01T00:42:02.493Z,13.37
2023-05-01T00:44:29.151Z,18.57
2023-05-01T00:46:57.121Z,24.37
2023-05-01T00:49:23.862Z,14.00
2023-05-01T00:51:53.297Z,14.47
2023-05-01T00:54:21.004Z,13.17
2023-05-01T00:56:48.528Z,14.50
2023-05-01T00:59:15.283Z,13.80
2023-05-01T01:01:42.614Z,13.20
2023-05-01T01:04:09.351Z,16.57
2023-05-01T01:06:54.361Z,14.63
2023-05-01T01:09:45.832Z,15.93
2023-05-01T01:12:26.262Z,14.53
2023-05-01T01:15:18.815Z,17.07
2023-05-01T01:18:02.456Z,20.00
2023-05-01T01:20:44.198Z,17.67
2023-05-01T01:23:40.297Z,16.33
2023-05-01T01:26:41.226Z,13.37
2023-05-01T01:29:34.338Z,16.07
2023-05-01T01:32:19.148Z,16.73
2023-05-01T01:34:54.058Z,18.53
2023-05-01T01:37:44.871Z,16.50
2023-05-01T01:40:15.932Z,16.53
2023-05-01T01:42:52.159Z,14.47
2023-05-01T01:45:25.583Z,15.37
2023-05-01T01:47:54.528Z,14.30
2023-05-01T01:50:25.030Z,15.10
2023-05-01T01:52:53.042Z,16.40
2023-05-01T01:55:25.346Z,19.60
2023-05-01T01:57:53.288Z,19.43
2023-05-01T02:00:21.666Z,14.77
2023-05-01T02:02:49.609Z,16.03
2023-05-01T02:05:17.786Z,15.20
2023-05-01T02:07:49.078Z,16.57
2023-05-01T02:10:16.166Z,16.07
2023-05-01T02:12:48.483Z,18.40
2023-05-01T02:15:18.268Z,21.10
2023-05-01T02:17:45.402Z,22.23
2023-05-01T02:20:13.585Z,20.10
2023-05-01T02:22:42.336Z,19.00
2023-05-01T02:25:12.182Z,19.87
2023-05-01T02:27:43.472Z,20.97
2023-05-01T02:30:11.456Z,21.33
2023-05-01T02:32:38.249Z,15.70
2023-05-01T02:35:05.273Z,30.60
2023-05-01T02:37:32.489Z,20.90
2023-05-01T02:40:00.007Z,20.07
2023-05-01T02:42:28.101Z,20.43
2023-05-01T02:44:59.865Z,16.03
2023-05-01T02:47:28.849Z,20.47
2023-05-01T02:49:57.542Z,16.93
2023-05-01T02:52:25.914Z,16.43
2023-05-01T02:54:52.572Z,20.80
2023-05-01T02:57:20.303Z,18.13
2023-05-01T02:59:47.263Z,18.80
2023-05-01T03:02:13.997Z,20.23
2023-05-01T03:04:40.780Z,18.10
2023-05-01T03:07:08.205Z,22.03
2023-05-01T03:09:34.806Z,20.17
2023-05-01T03:12:02.434Z,20.47
2023-05-01T03:14:29.411Z,17.60
2023-05-01T03:16:56.639Z,18.77
2023-05-01T03:19:23.248Z,16.60
2023-05-01T03:21:49.996Z,16.67
2023-05-01T03:24:16.707Z,15.90
2023-05-01T03:26:43.398Z,19.13
2023-05-01T03:29:10.159Z,18.53
2023-05-01T03:31:36.801Z,19.53
2023-05-01T03:34:03.775Z,20.00
2023-05-01T03:36:30.438Z,19.73
2023-05-01T03:38:57.097Z,20.53
2023-05-01T03:41:23.762Z,21.87
2023-05-01T03:43:50.523Z,15.90
2023-05-01T03:46:17.188Z,20.60
2023-05-01T03:48:44.253Z,20.50
2023-05-01T03:51:10.869Z,16.57
2023-05-01T03:53:37.506Z,19.40
2023-05-01T03:56:04.675Z,18.67
2023-05-01T03:58:31.363Z,21.83
2023-05-01T04:01:00.889Z,17.97
2023-05-01T04:03:28.581Z,20.90
2023-05-01T04:05:55.638Z,16.20
2023-05-01T04:08:22.564Z,19.87
2023-05-01T04:10:50.312Z,23.93
2023-05-01T04:13:16.965Z,21.47
2023-05-01T04:15:46.718Z,20.63
2023-05-01T04:18:13.622Z,18.80
2023-05-01T04:20:40.434Z,20.20
2023-05-01T04:23:07.676Z,18.20
2023-05-01T04:25:34.293Z,16.73
2023-05-01T04:28:01.021Z,25.67
2023-05-01T04:30:27.730Z,19.47
2023-05-01T04:32:54.403Z,18.30
2023-05-01T04:35:21.197Z,18.87
2023-05-01T04:37:47.792Z,20.50
2023-05-01T04:40:14.597Z,19.70
2023-05-01T04:42:41.365Z,19.97
2023-05-01T04:45:08.460Z,19.37
2023-05-01T04:47:35.135Z,19.60
2023-05-01T04:50:01.754Z,20.93
2023-05-01T04:52:28.484Z,18.60
2023-05-01T04:54:55.107Z,19.87
2023-05-01T04:57:21.758Z,29.33
2023-05-01T04:59:48.413Z,20.50
2023-05-01T05:02:15.137Z,23.70
2023-05-01T05:04:41.799Z,26.80
2023-05-01T05:07:09.334Z,21.97
2023-05-01T05:09:36.262Z,23.33
2023-05-01T05:12:04.675Z,22.67
2023-05-01T05:14:31.461Z,20.77
2023-05-01T05:16:58.337Z,23.00
2023-05-01T05:19:25.286Z,19.80
2023-05-01T05:21:51.902Z,24.03
2023-05-01T05:24:18.788Z,21.40
2023-05-01T05:26:45.402Z,21.47
2023-05-01T05:29:12.032Z,24.50
2023-05-01T05:31:38.812Z,21.30
2023-05-01T05:34:05.452Z,25.37
2023-05-01T05:36:32.289Z,21.90
2023-05-01T05:38:59.739Z,21.40
2023-05-01T05:41:27.121Z,21.33
2023-05-01T05:43:54.393Z,22.03
2023-05-01T05:46:21.071Z,24.60
2023-05-01T05:48:47.708Z,19.27
2023-05-01T05:51:14.486Z,18.90
2023-05-01T05:53:41.301Z,19.50
2023-05-01T05:56:08.034Z,18.37
2023-05-01T05:58:34.738Z,20.23
2023-05-01T06:01:01.322Z,17.20
2023-05-01T06:03:27.976Z,19.13
2023-05-01T06:05:54.894Z,18.70
2023-05-01T06:08:22.309Z,20.40
2023-05-01T06:10:48.992Z,20.07
2023-05-01T06:13:15.898Z,21.80
2023-05-01T06:15:43.667Z,22.70
2023-05-01T06:18:11.748Z,21.30
2023-05-01T06:20:38.861Z,20.30
2023-05-01T06:23:05.578Z,19.27
2023-05-01T06:25:32.184Z,18.43
2023-05-01T06:27:58.980Z,20.90
2023-05-01T06:30:25.674Z,21.73
2023-05-01T06:32:52.454Z,20.33
2023-05-01T06:35:19.191Z,27.47
2023-05-01T06:37:46.084Z,23.37
2023-05-01T06:40:12.958Z,21.80
2023-05-01T06:42:40.069Z,25.63
2023-05-01T06:45:07.802Z,17.10
2023-05-01T06:47:34.638Z,19.50
2023-05-01T06:50:02.863Z,15.23
2023-05-01T06:52:31.506Z,20.03
2023-05-01T06:54:58.208Z,15.17
2023-05-01T06:57:24.925Z,16.77
2023-05-01T06:59:51.665Z,18.37
2023-05-01T07:02:18.514Z,17.37
2023-05-01T07:04:45.454Z,17.07
2023-05-01T07:07:12.481Z,18.33
2023-05-01T07:09:40.275Z,18.03
2023-05-01T07:12:06.991Z,18.40
2023-05-01T07:14:35.631Z,22.20
2023-05-01T07:17:03.183Z,17.33
2023-05-01T07:19:29.819Z,20.30
2023-05-01T07:21:56.543Z,18.53
2023-05-01T07:24:23.147Z,18.10
2023-05-01T07:26:49.748Z,17.57
2023-05-01T07:29:16.772Z,17.30
2023-05-01T07:31:44.164Z,16.10
2023-05-01T07:34:11.828Z,15.23
2023-05-01T07:36:38.670Z,13.03
2023-05-01T07:39:06.619Z,13.63
2023-05-01T07:41:33.412Z,12.40
2023-05-01T07:44:00.812Z,14.20
2023-05-01T07:46:27.704Z,13.97
2023-05-01T07:48:54.509Z,20.33
2023-05-01T07:51:21.653Z,11.57
2023-05-01T07:53:49.334Z,16.43
2023-05-01T07:56:16.374Z,11.40
2023-05-01T07:58:43.871Z,12.83
2023-05-01T08:01:10.953Z,19.57
2023-05-01T08:03:38.081Z,13.53
2023-05-01T08:06:05.766Z,11.03
2023-05-01T08:08:32.591Z,11.13
2023-05-01T08:10:59.238Z,12.10
2023-05-01T08:13:26.102Z,11.60
2023-05-01T08:15:52.956Z,12.00
2023-05-01T08:18:21.049Z,12.77
2023-05-01T08:20:48.697Z,12.10
2023-05-01T08:23:16.421Z,12.87
2023-05-01T08:25:43.345Z,13.10
2023-05-01T08:28:10.108Z,13.83
2023-05-01T08:30:36.873Z,14.00
2023-05-01T08:33:03.695Z,12.90
2023-05-01T08:35:30.525Z,17.03
2023-05-01T08:37:57.989Z,14.53
2023-05-01T08:40:26.458Z,13.57
2023-05-01T08:42:55.601Z,11.50
2023-05-01T08:45:23.818Z,13.63
2023-05-01T08:47:52.281Z,15.93
2023-05-01T08:50:19.687Z,13.87
2023-05-01T08:52:47.400Z,13.33
2023-05-01T08:55:15.393Z,12.13
2023-05-01T08:57:46.707Z,14.13
2023-05-01T09:00:19.621Z,12.17
2023-05-01T09:02:48.675Z,13.07
2023-05-01T09:05:20.891Z,13.30
2023-05-01T09:07:48.281Z,15.10
2023-05-01T09:10:17.895Z,15.00
2023-05-01T09:12:49.029Z,16.67
2023-05-01T09:15:15.919Z,14.33
2023-05-01T09:17:42.838Z,14.17
2023-05-01T09:20:10.870Z,15.17
2023-05-01T09:22:37.485Z,14.90
2023-05-01T09:25:04.476Z,13.33
2023-05-01T09:27:37.843Z,14.10
2023-05-01T09:30:06.691Z,14.80
2023-05-01T09:32:33.624Z,18.20
2023-05-01T09:35:12.336Z,19.80
2023-05-01T09:37:39.637Z,16.83
2023-05-01T09:40:11.304Z,16.73
2023-05-01T09:42:40.056Z,17.57
2023-05-01T09:45:18.608Z,15.90
2023-05-01T09:47:46.654Z,15.33
2023-05-01T09:50:34.560Z,15.80
2023-05-01T09:53:02.746Z,15.03
2023-05-01T09:55:29.483Z,15.27
2023-05-01T09:57:56.189Z,15.33
2023-05-01T10:00:22.938Z,16.30
2023-05-01T10:02:50.371Z,17.23
2023-05-01T10:05:18.432Z,19.90
2023-05-01T10:08:03.711Z,14.80
2023-05-01T10:10:31.091Z,15.00
2023-05-01T10:13:16.626Z,15.23
2023-05-01T10:15:49.006Z,15.47
2023-05-01T10:18:17.346Z,18.33
2023-05-01T10:20:44.001Z,14.60
2023-05-01T10:23:11.502Z,21.33
2023-05-01T10:25:39.943Z,14.50
2023-05-01T10:28:08.308Z,14.07
2023-05-01T10:30:36.021Z,15.50
2023-05-01T10:33:03.064Z,15.93
2023-05-01T10:35:33.973Z,14.30
2023-05-01T10:38:07.663Z,16.17
2023-05-01T10:40:40.836Z,13.97
2023-05-01T10:43:28.590Z,14.70
2023-05-01T10:46:07.746Z,16.10
2023-05-01T10:48:40.839Z,16.83
2023-05-01T10:51:12.135Z,14.67
2023-05-01T10:53:40.707Z,17.57
2023-05-01T10:56:26.451Z,16.30
2023-05-01T10:58:53.039Z,18.80
2023-05-01T11:01:39.834Z,15.80
2023-05-01T11:04:21.933Z,16.20
2023-05-01T11:07:11.314Z,15.90
2023-05-01T11:10:02.788Z,15.50
2023-05-01T11:12:51.821Z,17.00
2023-05-01T11:15:29.198Z,16.63
2023-05-01T11:17:56.582Z,16.37
2023-05-01T11:20:26.366Z,16.07
2023-05-01T11:22:54.810Z,18.30
2023-05-01T11:25:24.329Z,16.73
2023-05-01T11:27:56.275Z,18.03
2023-05-01T11:30:23.053Z,16.70
2023-05-01T11:32:51.379Z,15.10
2023-05-01T11:35:23.007Z,16.03
2023-05-01T11:37:55.858Z,16.20
2023-05-01T11:40:33.444Z,17.23
2023-05-01T11:43:07.465Z,16.10
2023-05-01T11:45:35.985Z,15.97
2023-05-01T11:48:04.644Z,15.50
2023-05-01T11:50:36.382Z,15.93
2023-05-01T11:53:04.334Z,15.80
2023-05-01T11:55:32.880Z,18.67
2023-05-01T11:57:59.688Z,17.07
2023-05-01T12:00:36.694Z,16.60
2023-05-01T12:03:12.484Z,16.20
2023-05-01T12:05:42.284Z,17.00
2023-05-01T12:08:10.055Z,16.97
2023-05-01T12:10:37.940Z,15.17
2023-05-01T12:13:05.802Z,16.27
2023-05-01T12:15:36.486Z,16.73
2023-05-01T12:18:07.007Z,18.20
2023-05-01T12:20:38.974Z,31.07
2023-05-01T12:23:07.264Z,15.00
2023-05-01T12:25:34.941Z,16.40
2023-05-01T12:28:16.857Z,15.93
2023-05-01T12:30:45.738Z,15.93
2023-05-01T12:33:17.542Z,14.47
2023-05-01T12:35:46.704Z,15.87
2023-05-01T12:38:14.477Z,14.10
2023-05-01T12:40:54.024Z,14.30
2023-05-01T12:43:32.032Z,15.70
2023-05-01T12:45:59.068Z,16.10
2023-05-01T12:48:26.696Z,14.60
2023-05-01T12:50:56.787Z,13.93
2023-05-01T12:53:28.187Z,12.77
2023-05-01T12:55:57.537Z,14.57
2023-05-01T12:58:34.966Z,16.30
2023-05-01T13:01:01.769Z,14.40
2023-05-01T13:03:29.870Z,13.27
2023-05-01T13:06:01.994Z,13.30
2023-05-01T13:08:33.814Z,13.50
2023-05-01T13:11:08.872Z,18.03
2023-05-01T13:13:37.398Z,13.20
2023-05-01T13:16:10.385Z,16.03
2023-05-01T13:18:47.946Z,13.13
2023-05-01T13:21:16.700Z,11.63
2023-05-01T13:23:58.894Z,11.97
2023-05-01T13:26:36.156Z,12.60
2023-05-01T13:29:05.807Z,13.00
2023-05-01T13:31:32.600Z,15.17
2023-05-01T13:33:59.778Z,12.30
2023-05-01T13:36:33.107Z,13.10
2023-05-01T13:38:59.841Z,12.67
2023-05-01T13:41:27.866Z,14.93
2023-05-01T13:43:56.574Z,13.20
2023-05-01T13:46:25.864Z,11.90
2023-05-01T13:48:52.741Z,11.80
2023-05-01T13:51:25.141Z,13.40
2023-05-01T13:53:53.750Z,14.83
2023-05-01T13:56:21.681Z,11.90
2023-05-01T13:58:48.773Z,12.70
2023-05-01T14:01:18.957Z,12.30
2023-05-01T14:03:46.293Z,13.90
2023-05-01T14:06:20.997Z,15.37
2023-05-01T14:08:49.103Z,15.47
2023-05-01T14:11:16.143Z,13.60
2023-05-01T14:13:47.081Z,14.20
2023-05-01T14:16:32.082Z,19.30
2023-05-01T14:18:59.048Z,14.40
2023-05-01T14:21:30.291Z,15.37
2023-05-01T14:23:58.046Z,13.63
2023-05-01T14:26:24.960Z,13.57
2023-05-01T14:28:51.695Z,13.33
2023-05-01T14:31:21.237Z,15.20
2023-05-01T14:33:48.136Z,11.77
2023-05-01T14:36:14.912Z,13.93
2023-05-01T14:38:46.544Z,12.63
2023-05-01T14:41:14.628Z,11.83
2023-05-01T14:43:42.863Z,12.03
2023-05-01T14:46:12.437Z,12.50
2023-05-01T14:48:41.662Z,12.63
2023-05-01T14:51:15.044Z,12.60
2023-05-01T14:53:44.348Z,13.60
2023-05-01T14:56:12.214Z,16.23
2023-05-01T14:58:39.110Z,12.40
2023-05-01T15:01:06.060Z,12.60
2023-05-01T15:03:41.026Z,12.07
2023-05-01T15:06:08.941Z,12.30
2023-05-01T15:08:36.264Z,12.23
2023-05-01T15:11:02.992Z,11.27
2023-05-01T15:13:31.699Z,11.93
2023-05-01T15:15:58.788Z,11.07
2023-05-01T15:18:26.204Z,11.80
2023-05-01T15:20:53.042Z,13.03
2023-05-01T15:23:19.729Z,12.87
2023-05-01T15:25:47.665Z,14.23
2023-05-01T15:28:14.463Z,11.60
2023-05-01T15:30:45.782Z,12.20
2023-05-01T15:33:15.367Z,19.03
2023-05-01T15:35:45.446Z,11.70
2023-05-01T15:38:12.662Z,11.97
2023-05-01T15:40:39.369Z,11.60
2023-05-01T15:43:06.477Z,15.30
2023-05-01T15:45:33.473Z,10.47
2023-05-01T15:48:01.025Z,12.43
2023-05-01T15:50:28.056Z,13.97
2023-05-01T15:52:54.718Z,11.57
2023-05-01T15:55:21.918Z,13.00
2023-05-01T15:57:48.732Z,11.60
2023-05-01T16:00:17.178Z,11.53
2023-05-01T16:02:44.909Z,12.60
2023-05-01T16:05:14.197Z,10.80
2023-05-01T16:07:41.154Z,11.27
2023-05-01T16:10:08.995Z,17.73
2023-05-01T16:12:35.796Z,13.20
2023-05-01T16:15:05.382Z,12.10
2023-05-01T16:17:34.140Z,13.23
2023-05-01T16:20:02.384Z,13.10
2023-05-01T16:22:29.399Z,13.83
2023-05-01T16:24:59.345Z,13.67
2023-05-01T16:27:25.944Z,14.10
2023-05-01T16:29:52.583Z,12.40
2023-05-01T16:32:20.715Z,13.37
2023-05-01T16:34:49.264Z,14.57
2023-05-01T16:37:17.454Z,13.53
2023-05-01T16:39:44.171Z,13.30
2023-05-01T16:42:14.705Z,12.80
2023-05-01T16:44:41.384Z,13.00
2023-05-01T16:47:11.698Z,13.10
2023-05-01T16:49:42.102Z,12.87
2023-05-01T16:52:13.498Z,15.17
2023-05-01T16:54:40.350Z,12.70
2023-05-01T16:57:07.325Z,13.50
2023-05-01T16:59:34.460Z,13.20
2023-05-01T17:02:01.162Z,11.00
2023-05-01T17:04:28.276Z,12.20
2023-05-01T17:06:56.114Z,12.93
2023-05-01T17:09:22.995Z,13.00
2023-05-01T17:11:49.618Z,17.90
2023-05-01T17:14:16.426Z,12.30
2023-05-01T17:16:43.169Z,13.70
2023-05-01T17:19:10.095Z,12.77
2023-05-01T17:21:36.937Z,11.33
2023-05-01T17:24:04.411Z,13.60
2023-05-01T17:26:31.120Z,12.50
2023-05-01T17:28:57.794Z,12.30
2023-05-01T17:31:24.462Z,13.20
2023-05-01T17:33:51.138Z,13.67
2023-05-01T17:36:17.784Z,13.37
2023-05-01T17:38:44.375Z,14.57
2023-05-01T17:41:10.996Z,14.30
2023-05-01T17:43:37.587Z,12.20
2023-05-01T17:46:04.992Z,13.27
2023-05-01T17:48:33.210Z,12.60
2023-05-01T17:50:59.935Z,13.10
2023-05-01T17:53:26.595Z,12.07
2023-05-01T17:55:53.349Z,13.87
2023-05-01T17:58:20.764Z,12.73
2023-05-01T18:00:47.944Z,12.47
2023-05-01T18:03:14.912Z,12.77
2023-05-01T18:05:41.790Z,12.07
2023-05-01T18:08:08.636Z,12.60
2023-05-01T18:10:35.276Z,12.43
2023-05-01T18:13:02.189Z,11.57
2023-05-01T18:15:28.860Z,11.60
2023-05-01T18:17:55.695Z,13.00
2023-05-01T18:20:22.774Z,12.00
2023-05-01T18:22:50.053Z,12.90
2023-05-01T18:25:17.262Z,12.77
2023-05-01T18:27:45.483Z,12.50
2023-05-01T18:30:12.748Z,12.13
2023-05-01T18:32:46.860Z,11.27
2023-05-01T18:35:15.142Z,11.23
2023-05-01T18:37:42.774Z,12.00
2023-05-01T18:40:09.989Z,11.97
2023-05-01T18:42:36.691Z,13.40
2023-05-01T18:45:03.942Z,14.20
2023-05-01T18:47:32.535Z,12.83
2023-05-01T18:49:59.885Z,14.67
2023-05-01T18:52:27.834Z,11.40
2023-05-01T18:54:54.728Z,16.40
2023-05-01T18:57:22.538Z,11.50
2023-05-01T18:59:49.305Z,11.80
2023-05-01T19:02:16.192Z,12.77
2023-05-01T19:04:56.007Z,12.13
2023-05-01T19:07:24.823Z,11.37
2023-05-01T19:09:51.495Z,16.77
2023-05-01T19:12:18.106Z,11.50
2023-05-01T19:14:44.807Z,12.73
2023-05-01T19:17:11.458Z,11.10
2023-05-01T19:19:38.120Z,9.70
2023-05-01T19:22:04.929Z,12.07
2023-05-01T19:24:31.562Z,12.23
2023-05-01T19:26:58.225Z,11.00
2023-05-01T19:29:25.921Z,11.87
2023-05-01T19:31:52.676Z,14.63
2023-05-01T19:34:20.738Z,11.20
2023-05-01T19:36:47.456Z,13.50
2023-05-01T19:39:14.372Z,10.90
2023-05-01T19:41:41.356Z,10.57
2023-05-01T19:44:08.106Z,11.60
2023-05-01T19:46:34.811Z,11.33
2023-05-01T19:49:01.451Z,12.27
2023-05-01T19:51:28.162Z,12.83
2023-05-01T19:53:55.058Z,10.67
2023-05-01T19:56:23.058Z,11.87
2023-05-01T19:58:50.010Z,11.90
2023-05-01T20:01:16.713Z,13.10
2023-05-01T20:03:43.520Z,12.53
2023-05-01T20:06:10.292Z,11.60
2023-05-01T20:08:36.966Z,13.90
2023-05-01T20:11:03.659Z,12.70
2023-05-01T20:13:30.448Z,11.90
2023-05-01T20:15:57.067Z,11.73
2023-05-01T20:18:24.115Z,10.70
2023-05-01T20:20:50.752Z,10.80
2023-05-01T20:23:19.440Z,10.57
2023-05-01T20:25:48.818Z,13.60
2023-05-01T20:28:15.558Z,11.47
2023-05-01T20:30:44.631Z,17.30
2023-05-01T20:33:11.759Z,12.40
2023-05-01T20:35:39.362Z,12.53
2023-05-01T20:38:06.133Z,13.00
2023-05-01T20:40:33.728Z,10.50
2023-05-01T20:43:00.739Z,12.23
2023-05-01T20:45:31.326Z,11.97
2023-05-01T20:47:59.886Z,11.10
2023-05-01T20:50:27.664Z,12.67
2023-05-01T20:52:55.202Z,11.50
2023-05-01T20:55:22.994Z,11.80
2023-05-01T20:57:49.640Z,12.87
2023-05-01T21:00:16.282Z,12.23
2023-05-01T21:02:43.050Z,11.10
2023-05-01T21:05:10.727Z,11.63
2023-05-01T21:07:38.748Z,11.17
2023-05-01T21:10:06.712Z,13.60
2023-05-01T21:12:33.386Z,13.43
2023-05-01T21:15:00.293Z,14.03
2023-05-01T21:17:26.922Z,15.30
2023-05-01T21:19:54.179Z,13.70
2023-05-01T21:22:22.229Z,18.47
2023-05-01T21:24:57.342Z,18.57
2023-05-01T21:27:25.372Z,12.40
2023-05-01T21:30:00.100Z,14.00
2023-05-01T21:32:32.349Z,11.97
2023-05-01T21:35:03.563Z,15.00
2023-05-01T21:37:30.259Z,10.90
2023-05-01T21:40:01.241Z,12.30
2023-05-01T21:42:35.676Z,11.23
2023-05-01T21:45:10.683Z,12.60
2023-05-01T21:47:39.836Z,13.83
2023-05-01T21:50:18.586Z,13.87
2023-05-01T21:52:47.669Z,13.80
2023-05-01T21:55:22.699Z,15.50
2023-05-01T21:57:50.174Z,13.23
2023-05-01T22:00:18.896Z,11.70
2023-05-01T22:02:47.991Z,12.50
2023-05-01T22:05:16.851Z,12.50
2023-05-01T22:07:45.135Z,12.13
2023-05-01T22:10:14.350Z,14.90
2023-05-01T22:12:41.313Z,13.37
2023-05-01T22:15:09.246Z,14.60
2023-05-01T22:17:36.993Z,12.40
2023-05-01T22:20:05.813Z,13.00
2023-05-01T22:22:32.826Z,20.30
2023-05-01T22:24:59.622Z,11.37
2023-05-01T22:27:26.231Z,15.83
2023-05-01T22:29:53.080Z,13.10
2023-05-01T22:32:19.766Z,13.67
2023-05-01T22:34:46.455Z,13.07
2023-05-01T22:37:13.473Z,12.23
2023-05-01T22:39:40.109Z,14.37
2023-05-01T22:42:06.854Z,14.30
2023-05-01T22:44:33.534Z,11.90
2023-05-01T22:47:00.260Z,11.80
2023-05-01T22:49:31.938Z,13.80
2023-05-01T22:51:58.793Z,11.70
2023-05-01T22:54:25.846Z,11.90
2023-05-01T22:56:52.446Z,12.37
2023-05-01T22:59:19.649Z,14.93
2023-05-01T23:01:46.326Z,15.37
2023-05-01T23:04:13.959Z,12.80
2023-05-01T23:06:41.030Z,12.33
2023-05-01T23:09:08.406Z,15.10
2023-05-01T23:11:35.152Z,15.10
2023-05-01T23:14:02.013Z,13.03
2023-05-01T23:16:37.510Z,13.10
2023-05-01T23:19:04.656Z,11.70
2023-05-01T23:21:31.542Z,13.13
2023-05-01T23:23:58.143Z,12.90
2023-05-01T23:26:26.239Z,13.43
2023-05-01T23:28:53.387Z,18.50
2023-05-01T23:31:28.787Z,15.77
2023-05-01T23:33:57.927Z,16.35
2023-05-01T23:36:24.626Z,14.47
2023-05-01T23:38:51.203Z,11.90
2023-05-01T23:41:17.811Z,11.73
2023-05-01T23:43:47.852Z,12.90
2023-05-01T23:46:14.677Z,13.33
2023-05-01T23:48:41.583Z,14.93
2023-05-01T23:51:08.504Z,10.93
2023-05-01T23:53:35.215Z,12.07
2023-05-01T23:56:02.167Z,18.90
2023-05-01T23:58:28.826Z,12.27
